Aviation Digital Data Service (ADDS)

Output produced by METARs form (0454 UTC 16 February 2019)
found at http://www.aviationweather.gov/metar/data/
 
METAR text: UGKO 160430Z 28003KT 250V310 3000 RA BR SCT021 OVC040 06/06 Q1019 NOSIG
Conditions at: UGKO (KOPITNARI , GE) observed 0430 UTC 16 February 2019
Temperature: 6.0°C (43°F)
Dewpoint: 6.0°C (43°F) [RH = 100%]
Pressure (altimeter): 30.09 inches Hg (1019.0 mb)
Winds: from the W (280 degrees) at 3 MPH (3 knots; 1.5 m/s)
Visibility: 1.86 miles (2.99 km)
Ceiling: 4000 feet AGL
Clouds: scattered clouds at 2100 feet AGL
overcast cloud deck at 4000 feet AGL
Weather: RA BR  (moderate rain, mist)

METAR text: UGKO 160400Z 32002KT 9999 -RA SCT022 OVC042 06/05 Q1019 NOSIG
Conditions at: UGKO (KOPITNARI , GE) observed 0400 UTC 16 February 2019
Temperature: 6.0°C (43°F)
Dewpoint: 5.0°C (41°F) [RH = 93%]
Pressure (altimeter): 30.09 inches Hg (1019.0 mb)
Winds: from the NW (320 degrees) at 2 MPH (2 knots; 1.0 m/s)
Visibility: 6 or more miles (10+ km)
Ceiling: 4200 feet AGL
Clouds: scattered clouds at 2200 feet AGL
overcast cloud deck at 4200 feet AGL
Weather: -RA  (light rain)

METAR text: UGKO 160330Z VRB01KT 9999 -RA SCT020 OVC040 06/05 Q1019 NOSIG
Conditions at: UGKO (KOPITNARI , GE) observed 0330 UTC 16 February 2019
Temperature: 6.0°C (43°F)
Dewpoint: 5.0°C (41°F) [RH = 93%]
Pressure (altimeter): 30.09 inches Hg (1019.0 mb)
Winds: variable direction winds at 1 MPH (1 knots; 0.5 m/s)
Visibility: 6 or more miles (10+ km)
Ceiling: 4000 feet AGL
Clouds: scattered clouds at 2000 feet AGL
overcast cloud deck at 4000 feet AGL
Weather: -RA  (light rain)

METAR text: UGKO 160300Z VRB02KT 8000 -RA SCT020 OVC040 05/04 Q1019 NOSIG
Conditions at: UGKO (KOPITNARI , GE) observed 0300 UTC 16 February 2019
Temperature: 5.0°C (41°F)
Dewpoint: 4.0°C (39°F) [RH = 93%]
Pressure (altimeter): 30.09 inches Hg (1019.0 mb)
Winds: variable direction winds at 2 MPH (2 knots; 1.0 m/s)
Visibility: 5 miles ( 8 km)
Ceiling: 4000 feet AGL
Clouds: scattered clouds at 2000 feet AGL
overcast cloud deck at 4000 feet AGL
Weather: -RA  (light rain)

METAR text: UGKO 160230Z 25002KT 8000 -RA SCT022 OVC042 06/05 Q1018 NOSIG
Conditions at: UGKO (KOPITNARI , GE) observed 0230 UTC 16 February 2019
Temperature: 6.0°C (43°F)
Dewpoint: 5.0°C (41°F) [RH = 93%]
Pressure (altimeter): 30.06 inches Hg (1018.0 mb)
Winds: from the WSW (250 degrees) at 2 MPH (2 knots; 1.0 m/s)
Visibility: 5 miles ( 8 km)
Ceiling: 4200 feet AGL
Clouds: scattered clouds at 2200 feet AGL
overcast cloud deck at 4200 feet AGL
Weather: -RA  (light rain)

METAR text: UGKO 160200Z VRB02KT 6000 -RA SCT020 OVC042 06/05 Q1018 NOSIG
Conditions at: UGKO (KOPITNARI , GE) observed 0200 UTC 16 February 2019
Temperature: 6.0°C (43°F)
Dewpoint: 5.0°C (41°F) [RH = 93%]
Pressure (altimeter): 30.06 inches Hg (1018.0 mb)
Winds: variable direction winds at 2 MPH (2 knots; 1.0 m/s)
Visibility: 4 miles ( 6 km)
Ceiling: 4200 feet AGL
Clouds: scattered clouds at 2000 feet AGL
overcast cloud deck at 4200 feet AGL
Weather: -RA  (light rain)

METAR text: UGKO 160130Z VRB02KT 3400 RA BR SCT023 OVC042 07/06 Q1018 NOSIG
Conditions at: UGKO (KOPITNARI , GE) observed 0130 UTC 16 February 2019
Temperature: 7.0°C (45°F)
Dewpoint: 6.0°C (43°F) [RH = 93%]
Pressure (altimeter): 30.06 inches Hg (1018.0 mb)
Winds: variable direction winds at 2 MPH (2 knots; 1.0 m/s)
Visibility: 2.11 miles (3.40 km)
Ceiling: 4200 feet AGL
Clouds: scattered clouds at 2300 feet AGL
overcast cloud deck at 4200 feet AGL
Weather: RA BR  (moderate rain, mist)

METAR text: UGKO 160100Z VRB02KT 5000 -RA BR SCT023 OVC045 07/06 Q1018 NOSIG
Conditions at: UGKO (KOPITNARI , GE) observed 0100 UTC 16 February 2019
Temperature: 7.0°C (45°F)
Dewpoint: 6.0°C (43°F) [RH = 93%]
Pressure (altimeter): 30.06 inches Hg (1018.0 mb)
Winds: variable direction winds at 2 MPH (2 knots; 1.0 m/s)
Visibility: 3 miles ( 5 km)
Ceiling: 4500 feet AGL
Clouds: scattered clouds at 2300 feet AGL
overcast cloud deck at 4500 feet AGL
Weather: -RA BR  (light rain, mist)

METAR text: UGKO 160030Z VRB02KT 9999 SCT022 OVC045 07/06 Q1018 NOSIG
Conditions at: UGKO (KOPITNARI , GE) observed 0030 UTC 16 February 2019
Temperature: 7.0°C (45°F)
Dewpoint: 6.0°C (43°F) [RH = 93%]
Pressure (altimeter): 30.06 inches Hg (1018.0 mb)
Winds: variable direction winds at 2 MPH (2 knots; 1.0 m/s)
Visibility: 6 or more miles (10+ km)
Ceiling: 4500 feet AGL
Clouds: scattered clouds at 2200 feet AGL
overcast cloud deck at 4500 feet AGL
Weather: no significant weather observed at this time

METAR text: UGKO 160000Z VRB02KT 9999 SCT025 OVC045 07/06 Q1018 NOSIG
Conditions at: UGKO (KOPITNARI , GE) observed 0000 UTC 16 February 2019
Temperature: 7.0°C (45°F)
Dewpoint: 6.0°C (43°F) [RH = 93%]
Pressure (altimeter): 30.06 inches Hg (1018.0 mb)
Winds: variable direction winds at 2 MPH (2 knots; 1.0 m/s)
Visibility: 6 or more miles (10+ km)
Ceiling: 4500 feet AGL
Clouds: scattered clouds at 2500 feet AGL
overcast cloud deck at 4500 feet AGL
Weather: no significant weather observed at this time

METAR text: UGKO 152330Z AUTO VRB01KT 9999 SCT024/// BKN028/// BKN035/// 07/07 Q1019 NOSIG
Conditions at: UGKO (KOPITNARI , GE) observed 2330 UTC 15 February 2019
Temperature: 7.0°C (45°F)
Dewpoint: 7.0°C (45°F) [RH = 100%]
Pressure (altimeter): 30.09 inches Hg (1019.0 mb)
Winds: variable direction winds at 1 MPH (1 knots; 0.5 m/s)
Visibility: 6 or more miles (10+ km)
Ceiling: 2800 feet AGL
Clouds: scattered clouds at 2400 feet AGL
broken clouds at 2800 feet AGL
broken clouds at 3500 feet AGL
Weather: no significant weather observed at this time

METAR text: UGKO 152300Z 25003KT 6000 -RA SCT019 OVC039 07/06 Q1019 NOSIG
Conditions at: UGKO (KOPITNARI , GE) observed 2300 UTC 15 February 2019
Temperature: 7.0°C (45°F)
Dewpoint: 6.0°C (43°F) [RH = 93%]
Pressure (altimeter): 30.09 inches Hg (1019.0 mb)
Winds: from the WSW (250 degrees) at 3 MPH (3 knots; 1.5 m/s)
Visibility: 4 miles ( 6 km)
Ceiling: 3900 feet AGL
Clouds: scattered clouds at 1900 feet AGL
overcast cloud deck at 3900 feet AGL
Weather: -RA  (light rain)

METAR text: UGKO 152230Z 25002KT 8000 -RA SCT018 OVC038 06/05 Q1019 NOSIG
Conditions at: UGKO (KOPITNARI , GE) observed 2230 UTC 15 February 2019
Temperature: 6.0°C (43°F)
Dewpoint: 5.0°C (41°F) [RH = 93%]
Pressure (altimeter): 30.09 inches Hg (1019.0 mb)
Winds: from the WSW (250 degrees) at 2 MPH (2 knots; 1.0 m/s)
Visibility: 5 miles ( 8 km)
Ceiling: 3800 feet AGL
Clouds: scattered clouds at 1800 feet AGL
overcast cloud deck at 3800 feet AGL
Weather: -RA  (light rain)

METAR text: UGKO 152200Z VRB02KT 6000 -RA SCT019 OVC039 07/06 Q1019 NOSIG
Conditions at: UGKO (KOPITNARI , GE) observed 2200 UTC 15 February 2019
Temperature: 7.0°C (45°F)
Dewpoint: 6.0°C (43°F) [RH = 93%]
Pressure (altimeter): 30.09 inches Hg (1019.0 mb)
Winds: variable direction winds at 2 MPH (2 knots; 1.0 m/s)
Visibility: 4 miles ( 6 km)
Ceiling: 3900 feet AGL
Clouds: scattered clouds at 1900 feet AGL
overcast cloud deck at 3900 feet AGL
Weather: -RA  (light rain)

METAR text: UGKO 152130Z 24003KT 7000 -RA SCT024 OVC043 07/06 Q1019 NOSIG
Conditions at: UGKO (KOPITNARI , GE) observed 2130 UTC 15 February 2019
Temperature: 7.0°C (45°F)
Dewpoint: 6.0°C (43°F) [RH = 93%]
Pressure (altimeter): 30.09 inches Hg (1019.0 mb)
Winds: from the WSW (240 degrees) at 3 MPH (3 knots; 1.5 m/s)
Visibility: 4 miles ( 7 km)
Ceiling: 4300 feet AGL
Clouds: scattered clouds at 2400 feet AGL
overcast cloud deck at 4300 feet AGL
Weather: -RA  (light rain)

METAR text: UGKO 152100Z 26003KT 3700 RA BR SCT018 OVC037 07/07 Q1019 NOSIG
Conditions at: UGKO (KOPITNARI , GE) observed 2100 UTC 15 February 2019
Temperature: 7.0°C (45°F)
Dewpoint: 7.0°C (45°F) [RH = 100%]
Pressure (altimeter): 30.09 inches Hg (1019.0 mb)
Winds: from the W (260 degrees) at 3 MPH (3 knots; 1.5 m/s)
Visibility: 2.30 miles (3.70 km)
Ceiling: 3700 feet AGL
Clouds: scattered clouds at 1800 feet AGL
overcast cloud deck at 3700 feet AGL
Weather: RA BR  (moderate rain, mist)

METAR text: UGKO 152030Z 25004KT 3500 -RA BR SCT025 OVC040 07/07 Q1019 NOSIG
Conditions at: UGKO (KOPITNARI , GE) observed 2030 UTC 15 February 2019
Temperature: 7.0°C (45°F)
Dewpoint: 7.0°C (45°F) [RH = 100%]
Pressure (altimeter): 30.09 inches Hg (1019.0 mb)
Winds: from the WSW (250 degrees) at 5 MPH (4 knots; 2.1 m/s)
Visibility: 2.17 miles (3.49 km)
Ceiling: 4000 feet AGL
Clouds: scattered clouds at 2500 feet AGL
overcast cloud deck at 4000 feet AGL
Weather: -RA BR  (light rain, mist)

METAR text: UGKO 152000Z 25005KT 6000 -RA SCT020 OVC038 07/06 Q1019 NOSIG
Conditions at: UGKO (KOPITNARI , GE) observed 2000 UTC 15 February 2019
Temperature: 7.0°C (45°F)
Dewpoint: 6.0°C (43°F) [RH = 93%]
Pressure (altimeter): 30.09 inches Hg (1019.0 mb)
Winds: from the WSW (250 degrees) at 6 MPH (5 knots; 2.6 m/s)
Visibility: 4 miles ( 6 km)
Ceiling: 3800 feet AGL
Clouds: scattered clouds at 2000 feet AGL
overcast cloud deck at 3800 feet AGL
Weather: -RA  (light rain)

METAR text: UGKO 151930Z 25007KT 6000 -RA SCT021 OVC037 07/07 Q1019 NOSIG
Conditions at: UGKO (KOPITNARI , GE) observed 1930 UTC 15 February 2019
Temperature: 7.0°C (45°F)
Dewpoint: 7.0°C (45°F) [RH = 100%]
Pressure (altimeter): 30.09 inches Hg (1019.0 mb)
Winds: from the WSW (250 degrees) at 8 MPH (7 knots; 3.6 m/s)
Visibility: 4 miles ( 6 km)
Ceiling: 3700 feet AGL
Clouds: scattered clouds at 2100 feet AGL
overcast cloud deck at 3700 feet AGL
Weather: -RA  (light rain)

METAR text: UGKO 151900Z 24007KT 3600 -RA BR SCT024 OVC037 07/07 Q1019 NOSIG
Conditions at: UGKO (KOPITNARI , GE) observed 1900 UTC 15 February 2019
Temperature: 7.0°C (45°F)
Dewpoint: 7.0°C (45°F) [RH = 100%]
Pressure (altimeter): 30.09 inches Hg (1019.0 mb)
Winds: from the WSW (240 degrees) at 8 MPH (7 knots; 3.6 m/s)
Visibility: 2.24 miles (3.60 km)
Ceiling: 3700 feet AGL
Clouds: scattered clouds at 2400 feet AGL
overcast cloud deck at 3700 feet AGL
Weather: -RA BR  (light rain, mist)

METAR text: UGKO 151830Z 25006KT 3200 -RA BR SCT022 OVC038 08/08 Q1018 NOSIG
Conditions at: UGKO (KOPITNARI , GE) observed 1830 UTC 15 February 2019
Temperature: 8.0°C (46°F)
Dewpoint: 8.0°C (46°F) [RH = 100%]
Pressure (altimeter): 30.06 inches Hg (1018.0 mb)
Winds: from the WSW (250 degrees) at 7 MPH (6 knots; 3.1 m/s)
Visibility: 1.99 miles (3.20 km)
Ceiling: 3800 feet AGL
Clouds: scattered clouds at 2200 feet AGL
overcast cloud deck at 3800 feet AGL
Weather: -RA BR  (light rain, mist)

METAR text: UGKO 151800Z 26009KT 5000 -RA BR SCT022 OVC037 07/07 Q1018 NOSIG
Conditions at: UGKO (KOPITNARI , GE) observed 1800 UTC 15 February 2019
Temperature: 7.0°C (45°F)
Dewpoint: 7.0°C (45°F) [RH = 100%]
Pressure (altimeter): 30.06 inches Hg (1018.0 mb)
Winds: from the W (260 degrees) at 10 MPH (9 knots; 4.6 m/s)
Visibility: 3 miles ( 5 km)
Ceiling: 3700 feet AGL
Clouds: scattered clouds at 2200 feet AGL
overcast cloud deck at 3700 feet AGL
Weather: -RA BR  (light rain, mist)

METAR text: UGKO 151730Z 26009KT 8000 -RA SCT020 OVC038 07/06 Q1018 NOSIG
Conditions at: UGKO (KOPITNARI , GE) observed 1730 UTC 15 February 2019
Temperature: 7.0°C (45°F)
Dewpoint: 6.0°C (43°F) [RH = 93%]
Pressure (altimeter): 30.06 inches Hg (1018.0 mb)
Winds: from the W (260 degrees) at 10 MPH (9 knots; 4.6 m/s)
Visibility: 5 miles ( 8 km)
Ceiling: 3800 feet AGL
Clouds: scattered clouds at 2000 feet AGL
overcast cloud deck at 3800 feet AGL
Weather: -RA  (light rain)

METAR text: UGKO 151700Z 26009KT 8000 -RA SCT019 OVC040 08/07 Q1018 R25/2///50 NOSIG
Conditions at: UGKO (KOPITNARI , GE) observed 1700 UTC 15 February 2019
Temperature: 8.0°C (46°F)
Dewpoint: 7.0°C (45°F) [RH = 93%]
Pressure (altimeter): 30.06 inches Hg (1018.0 mb)
Winds: from the W (260 degrees) at 10 MPH (9 knots; 4.6 m/s)
Visibility: 5 miles ( 8 km)
Ceiling: 4000 feet AGL
Clouds: scattered clouds at 1900 feet AGL
overcast cloud deck at 4000 feet AGL
Weather: -RA  (light rain)

METAR text: UGKO 151630Z 26009KT 9999 SCT020 OVC038 08/06 Q1018 NOSIG
Conditions at: UGKO (KOPITNARI , GE) observed 1630 UTC 15 February 2019
Temperature: 8.0°C (46°F)
Dewpoint: 6.0°C (43°F) [RH = 87%]
Pressure (altimeter): 30.06 inches Hg (1018.0 mb)
Winds: from the W (260 degrees) at 10 MPH (9 knots; 4.6 m/s)
Visibility: 6 or more miles (10+ km)
Ceiling: 3800 feet AGL
Clouds: scattered clouds at 2000 feet AGL
overcast cloud deck at 3800 feet AGL
Weather: no significant weather observed at this time

METAR text: UGKO 151600Z 26010KT 9999 -RA SCT024 OVC040 08/06 Q1017 R07/////// NOSIG
Conditions at: UGKO (KOPITNARI , GE) observed 1600 UTC 15 February 2019
Temperature: 8.0°C (46°F)
Dewpoint: 6.0°C (43°F) [RH = 87%]
Pressure (altimeter): 30.03 inches Hg (1017.0 mb)
Winds: from the W (260 degrees) at 12 MPH (10 knots; 5.1 m/s)
Visibility: 6 or more miles (10+ km)
Ceiling: 4000 feet AGL
Clouds: scattered clouds at 2400 feet AGL
overcast cloud deck at 4000 feet AGL
Weather: -RA  (light rain)

METAR text: UGKO 151530Z 25010KT 9999 SCT032 BKN041 09/06 Q1017 NOSIG
Conditions at: UGKO (KOPITNARI , GE) observed 1530 UTC 15 February 2019
Temperature: 9.0°C (48°F)
Dewpoint: 6.0°C (43°F) [RH = 81%]
Pressure (altimeter): 30.03 inches Hg (1017.0 mb)
Winds: from the WSW (250 degrees) at 12 MPH (10 knots; 5.1 m/s)
Visibility: 6 or more miles (10+ km)
Ceiling: 4100 feet AGL
Clouds: scattered clouds at 3200 feet AGL
broken clouds at 4100 feet AGL
Weather: no significant weather observed at this time

METAR text: UGKO 151500Z 25010KT 9999 SCT023 OVC041 09/06 Q1017 NOSIG
Conditions at: UGKO (KOPITNARI , GE) observed 1500 UTC 15 February 2019
Temperature: 9.0°C (48°F)
Dewpoint: 6.0°C (43°F) [RH = 81%]
Pressure (altimeter): 30.03 inches Hg (1017.0 mb)
Winds: from the WSW (250 degrees) at 12 MPH (10 knots; 5.1 m/s)
Visibility: 6 or more miles (10+ km)
Ceiling: 4100 feet AGL
Clouds: scattered clouds at 2300 feet AGL
overcast cloud deck at 4100 feet AGL
Weather: no significant weather observed at this time

METAR text: UGKO 151430Z 25010KT 9999 SCT023 OVC044 09/06 Q1016 NOSIG
Conditions at: UGKO (KOPITNARI , GE) observed 1430 UTC 15 February 2019
Temperature: 9.0°C (48°F)
Dewpoint: 6.0°C (43°F) [RH = 81%]
Pressure (altimeter): 30.00 inches Hg (1016.0 mb)
Winds: from the WSW (250 degrees) at 12 MPH (10 knots; 5.1 m/s)
Visibility: 6 or more miles (10+ km)
Ceiling: 4400 feet AGL
Clouds: scattered clouds at 2300 feet AGL
overcast cloud deck at 4400 feet AGL
Weather: no significant weather observed at this time

METAR text: UGKO 151400Z 25009KT 9999 SCT025 OVC045 09/06 Q1016 NOSIG
Conditions at: UGKO (KOPITNARI , GE) observed 1400 UTC 15 February 2019
Temperature: 9.0°C (48°F)
Dewpoint: 6.0°C (43°F) [RH = 81%]
Pressure (altimeter): 30.00 inches Hg (1016.0 mb)
Winds: from the WSW (250 degrees) at 10 MPH (9 knots; 4.6 m/s)
Visibility: 6 or more miles (10+ km)
Ceiling: 4500 feet AGL
Clouds: scattered clouds at 2500 feet AGL
overcast cloud deck at 4500 feet AGL
Weather: no significant weather observed at this time

METAR text: UGKO 151330Z 25010KT 9999 SCT056 OVC089 10/06 Q1016 NOSIG
Conditions at: UGKO (KOPITNARI , GE) observed 1330 UTC 15 February 2019
Temperature: 10.0°C (50°F)
Dewpoint: 6.0°C (43°F) [RH = 76%]
Pressure (altimeter): 30.00 inches Hg (1016.0 mb)
Winds: from the WSW (250 degrees) at 12 MPH (10 knots; 5.1 m/s)
Visibility: 6 or more miles (10+ km)
Ceiling: 8900 feet AGL
Clouds: scattered clouds at 5600 feet AGL
overcast cloud deck at 8900 feet AGL
Weather: no significant weather observed at this time

METAR text: UGKO 151300Z 24010KT 9999 SCT033 BKN047 11/06 Q1016 NOSIG
Conditions at: UGKO (KOPITNARI , GE) observed 1300 UTC 15 February 2019
Temperature: 11.0°C (52°F)
Dewpoint: 6.0°C (43°F) [RH = 71%]
Pressure (altimeter): 30.00 inches Hg (1016.0 mb)
Winds: from the WSW (240 degrees) at 12 MPH (10 knots; 5.1 m/s)
Visibility: 6 or more miles (10+ km)
Ceiling: 4700 feet AGL
Clouds: scattered clouds at 3300 feet AGL
broken clouds at 4700 feet AGL
Weather: no significant weather observed at this time

METAR text: UGKO 151230Z 25011KT 9999 SCT035 BKN049 11/05 Q1016 NOSIG
Conditions at: UGKO (KOPITNARI , GE) observed 1230 UTC 15 February 2019
Temperature: 11.0°C (52°F)
Dewpoint: 5.0°C (41°F) [RH = 66%]
Pressure (altimeter): 30.00 inches Hg (1016.0 mb)
Winds: from the WSW (250 degrees) at 13 MPH (11 knots; 5.7 m/s)
Visibility: 6 or more miles (10+ km)
Ceiling: 4900 feet AGL
Clouds: scattered clouds at 3500 feet AGL
broken clouds at 4900 feet AGL
Weather: no significant weather observed at this time

METAR text: UGKO 151200Z 26006KT 220V310 9999 SCT032 BKN048 12/05 Q1016 NOSIG
Conditions at: UGKO (KOPITNARI , GE) observed 1200 UTC 15 February 2019
Temperature: 12.0°C (54°F)
Dewpoint: 5.0°C (41°F) [RH = 62%]
Pressure (altimeter): 30.00 inches Hg (1016.0 mb)
Winds: from the W (260 degrees) at 7 MPH (6 knots; 3.1 m/s)
Visibility: 6 or more miles (10+ km)
Ceiling: 4800 feet AGL
Clouds: scattered clouds at 3200 feet AGL
broken clouds at 4800 feet AGL
Weather: no significant weather observed at this time

METAR text: UGKO 151130Z 25006KT 160V300 9999 SCT025 BKN048 12/05 Q1016 NOSIG
Conditions at: UGKO (KOPITNARI , GE) observed 1130 UTC 15 February 2019
Temperature: 12.0°C (54°F)
Dewpoint: 5.0°C (41°F) [RH = 62%]
Pressure (altimeter): 30.00 inches Hg (1016.0 mb)
Winds: from the WSW (250 degrees) at 7 MPH (6 knots; 3.1 m/s)
Visibility: 6 or more miles (10+ km)
Ceiling: 4800 feet AGL
Clouds: scattered clouds at 2500 feet AGL
broken clouds at 4800 feet AGL
Weather: no significant weather observed at this time

METAR text: UGKO 151100Z 26005KT 220V310 9999 SCT025 BKN049 12/05 Q1016 NOSIG
Conditions at: UGKO (KOPITNARI , GE) observed 1100 UTC 15 February 2019
Temperature: 12.0°C (54°F)
Dewpoint: 5.0°C (41°F) [RH = 62%]
Pressure (altimeter): 30.00 inches Hg (1016.0 mb)
Winds: from the W (260 degrees) at 6 MPH (5 knots; 2.6 m/s)
Visibility: 6 or more miles (10+ km)
Ceiling: 4900 feet AGL
Clouds: scattered clouds at 2500 feet AGL
broken clouds at 4900 feet AGL
Weather: no significant weather observed at this time

METAR text: UGKO 151030Z 26006KT 230V290 9999 SCT025 SCT049 11/05 Q1016 NOSIG
Conditions at: UGKO (KOPITNARI , GE) observed 1030 UTC 15 February 2019
Temperature: 11.0°C (52°F)
Dewpoint: 5.0°C (41°F) [RH = 66%]
Pressure (altimeter): 30.00 inches Hg (1016.0 mb)
Winds: from the W (260 degrees) at 7 MPH (6 knots; 3.1 m/s)
Visibility: 6 or more miles (10+ km)
Ceiling: at least 12,000 feet AGL
Clouds: scattered clouds at 2500 feet AGL
scattered clouds at 4900 feet AGL
Weather: no significant weather observed at this time

METAR text: UGKO 151000Z 25006KT 220V300 9999 BKN049 11/06 Q1016 NOSIG
Conditions at: UGKO (KOPITNARI , GE) observed 1000 UTC 15 February 2019
Temperature: 11.0°C (52°F)
Dewpoint: 6.0°C (43°F) [RH = 71%]
Pressure (altimeter): 30.00 inches Hg (1016.0 mb)
Winds: from the WSW (250 degrees) at 7 MPH (6 knots; 3.1 m/s)
Visibility: 6 or more miles (10+ km)
Ceiling: 4900 feet AGL
Clouds: broken clouds at 4900 feet AGL
Weather: no significant weather observed at this time

METAR text: UGKO 150930Z 24007KT 180V290 9999 BKN100 11/06 Q1017 NOSIG
Conditions at: UGKO (KOPITNARI , GE) observed 0930 UTC 15 February 2019
Temperature: 11.0°C (52°F)
Dewpoint: 6.0°C (43°F) [RH = 71%]
Pressure (altimeter): 30.03 inches Hg (1017.0 mb)
Winds: from the WSW (240 degrees) at 8 MPH (7 knots; 3.6 m/s)
Visibility: 6 or more miles (10+ km)
Ceiling: 10000 feet AGL
Clouds: broken clouds at 10000 feet AGL
Weather: no significant weather observed at this time

METAR text: UGKO 150900Z 25006KT 220V280 9999 SCT020 BKN048 11/05 Q1017 NOSIG
Conditions at: UGKO (KOPITNARI , GE) observed 0900 UTC 15 February 2019
Temperature: 11.0°C (52°F)
Dewpoint: 5.0°C (41°F) [RH = 66%]
Pressure (altimeter): 30.03 inches Hg (1017.0 mb)
Winds: from the WSW (250 degrees) at 7 MPH (6 knots; 3.1 m/s)
Visibility: 6 or more miles (10+ km)
Ceiling: 4800 feet AGL
Clouds: scattered clouds at 2000 feet AGL
broken clouds at 4800 feet AGL
Weather: no significant weather observed at this time

METAR text: UGKO 150830Z 26006KT 220V320 9999 SCT023 BKN048 10/06 Q1017 NOSIG
Conditions at: UGKO (KOPITNARI , GE) observed 0830 UTC 15 February 2019
Temperature: 10.0°C (50°F)
Dewpoint: 6.0°C (43°F) [RH = 76%]
Pressure (altimeter): 30.03 inches Hg (1017.0 mb)
Winds: from the W (260 degrees) at 7 MPH (6 knots; 3.1 m/s)
Visibility: 6 or more miles (10+ km)
Ceiling: 4800 feet AGL
Clouds: scattered clouds at 2300 feet AGL
broken clouds at 4800 feet AGL
Weather: no significant weather observed at this time

METAR text: UGKO 150800Z 26005KT 210V300 9999 SCT019 BKN047 10/06 Q1017 NOSIG
Conditions at: UGKO (KOPITNARI , GE) observed 0800 UTC 15 February 2019
Temperature: 10.0°C (50°F)
Dewpoint: 6.0°C (43°F) [RH = 76%]
Pressure (altimeter): 30.03 inches Hg (1017.0 mb)
Winds: from the W (260 degrees) at 6 MPH (5 knots; 2.6 m/s)
Visibility: 6 or more miles (10+ km)
Ceiling: 4700 feet AGL
Clouds: scattered clouds at 1900 feet AGL
broken clouds at 4700 feet AGL
Weather: no significant weather observed at this time

METAR text: UGKO 150730Z 25006KT 220V290 9999 SCT022 BKN046 10/07 Q1017 NOSIG
Conditions at: UGKO (KOPITNARI , GE) observed 0730 UTC 15 February 2019
Temperature: 10.0°C (50°F)
Dewpoint: 7.0°C (45°F) [RH = 82%]
Pressure (altimeter): 30.03 inches Hg (1017.0 mb)
Winds: from the WSW (250 degrees) at 7 MPH (6 knots; 3.1 m/s)
Visibility: 6 or more miles (10+ km)
Ceiling: 4600 feet AGL
Clouds: scattered clouds at 2200 feet AGL
broken clouds at 4600 feet AGL
Weather: no significant weather observed at this time

METAR text: UGKO 150700Z 26004KT 240V300 9999 FEW008 09/08 Q1017 NOSIG
Conditions at: UGKO (KOPITNARI , GE) observed 0700 UTC 15 February 2019
Temperature: 9.0°C (48°F)
Dewpoint: 8.0°C (46°F) [RH = 93%]
Pressure (altimeter): 30.03 inches Hg (1017.0 mb)
Winds: from the W (260 degrees) at 5 MPH (4 knots; 2.1 m/s)
Visibility: 6 or more miles (10+ km)
Ceiling: at least 12,000 feet AGL
Clouds: few clouds at 800 feet AGL
Weather: no significant weather observed at this time

METAR text: UGKO 150630Z 26006KT 230V290 9999 SCT023 OVC045 08/07 Q1017 NOSIG
Conditions at: UGKO (KOPITNARI , GE) observed 0630 UTC 15 February 2019
Temperature: 8.0°C (46°F)
Dewpoint: 7.0°C (45°F) [RH = 93%]
Pressure (altimeter): 30.03 inches Hg (1017.0 mb)
Winds: from the W (260 degrees) at 7 MPH (6 knots; 3.1 m/s)
Visibility: 6 or more miles (10+ km)
Ceiling: 4500 feet AGL
Clouds: scattered clouds at 2300 feet AGL
overcast cloud deck at 4500 feet AGL
Weather: no significant weather observed at this time

METAR text: UGKO 150600Z VRB02KT 6000 FEW009 07/07 Q1017 NOSIG
Conditions at: UGKO (KOPITNARI , GE) observed 0600 UTC 15 February 2019
Temperature: 7.0°C (45°F)
Dewpoint: 7.0°C (45°F) [RH = 100%]
Pressure (altimeter): 30.03 inches Hg (1017.0 mb)
Winds: variable direction winds at 2 MPH (2 knots; 1.0 m/s)
Visibility: 4 miles ( 6 km)
Ceiling: at least 12,000 feet AGL
Clouds: few clouds at 900 feet AGL
Weather: no significant weather observed at this time

METAR text: UGKO 150530Z VRB02KT 6000 BKN045 06/05 Q1017 NOSIG
Conditions at: UGKO (KOPITNARI , GE) observed 0530 UTC 15 February 2019
Temperature: 6.0°C (43°F)
Dewpoint: 5.0°C (41°F) [RH = 93%]
Pressure (altimeter): 30.03 inches Hg (1017.0 mb)
Winds: variable direction winds at 2 MPH (2 knots; 1.0 m/s)
Visibility: 4 miles ( 6 km)
Ceiling: 4500 feet AGL
Clouds: broken clouds at 4500 feet AGL
Weather: no significant weather observed at this time

METAR text: UGKO 150500Z VRB02KT 6000 SCT021 BKN043 06/06 Q1017 NOSIG
Conditions at: UGKO (KOPITNARI , GE) observed 0500 UTC 15 February 2019
Temperature: 6.0°C (43°F)
Dewpoint: 6.0°C (43°F) [RH = 100%]
Pressure (altimeter): 30.03 inches Hg (1017.0 mb)
Winds: variable direction winds at 2 MPH (2 knots; 1.0 m/s)
Visibility: 4 miles ( 6 km)
Ceiling: 4300 feet AGL
Clouds: scattered clouds at 2100 feet AGL
broken clouds at 4300 feet AGL
Weather: no significant weather observed at this time

METAR text: UGKO 150430Z VRB02KT 5000 SCT021 OVC043 06/06 Q1016 NOSIG
Conditions at: UGKO (KOPITNARI , GE) observed 0430 UTC 15 February 2019
Temperature: 6.0°C (43°F)
Dewpoint: 6.0°C (43°F) [RH = 100%]
Pressure (altimeter): 30.00 inches Hg (1016.0 mb)
Winds: variable direction winds at 2 MPH (2 knots; 1.0 m/s)
Visibility: 3 miles ( 5 km)
Ceiling: 4300 feet AGL
Clouds: scattered clouds at 2100 feet AGL
overcast cloud deck at 4300 feet AGL
Weather: no significant weather observed at this time

METAR text: UGKO 150400Z 22003KT 6000 SCT019 OVC045 06/06 Q1016 NOSIG
Conditions at: UGKO (KOPITNARI , GE) observed 0400 UTC 15 February 2019
Temperature: 6.0°C (43°F)
Dewpoint: 6.0°C (43°F) [RH = 100%]
Pressure (altimeter): 30.00 inches Hg (1016.0 mb)
Winds: from the SW (220 degrees) at 3 MPH (3 knots; 1.5 m/s)
Visibility: 4 miles ( 6 km)
Ceiling: 4500 feet AGL
Clouds: scattered clouds at 1900 feet AGL
overcast cloud deck at 4500 feet AGL
Weather: no significant weather observed at this time

METAR text: UGKO 150330Z 23003KT 6000 SCT018 OVC045 05/05 Q1016 NOSIG
Conditions at: UGKO (KOPITNARI , GE) observed 0330 UTC 15 February 2019
Temperature: 5.0°C (41°F)
Dewpoint: 5.0°C (41°F) [RH = 100%]
Pressure (altimeter): 30.00 inches Hg (1016.0 mb)
Winds: from the SW (230 degrees) at 3 MPH (3 knots; 1.5 m/s)
Visibility: 4 miles ( 6 km)
Ceiling: 4500 feet AGL
Clouds: scattered clouds at 1800 feet AGL
overcast cloud deck at 4500 feet AGL
Weather: no significant weather observed at this time

METAR text: UGKO 150300Z 19002KT 9000 SCT014 OVC045 06/06 Q1016 NOSIG
Conditions at: UGKO (KOPITNARI , GE) observed 0300 UTC 15 February 2019
Temperature: 6.0°C (43°F)
Dewpoint: 6.0°C (43°F) [RH = 100%]
Pressure (altimeter): 30.00 inches Hg (1016.0 mb)
Winds: from the S (190 degrees) at 2 MPH (2 knots; 1.0 m/s)
Visibility: 6 miles ( 9 km)
Ceiling: 4500 feet AGL
Clouds: scattered clouds at 1400 feet AGL
overcast cloud deck at 4500 feet AGL
Weather: no significant weather observed at this time

METAR text: UGKO 150230Z 15003KT 8000 SCT013 OVC040 06/06 Q1016 NOSIG
Conditions at: UGKO (KOPITNARI , GE) observed 0230 UTC 15 February 2019
Temperature: 6.0°C (43°F)
Dewpoint: 6.0°C (43°F) [RH = 100%]
Pressure (altimeter): 30.00 inches Hg (1016.0 mb)
Winds: from the SSE (150 degrees) at 3 MPH (3 knots; 1.5 m/s)
Visibility: 5 miles ( 8 km)
Ceiling: 4000 feet AGL
Clouds: scattered clouds at 1300 feet AGL
overcast cloud deck at 4000 feet AGL
Weather: no significant weather observed at this time

METAR text: UGKO 150200Z 13003KT 6000 SCT014 OVC044 06/06 Q1017 NOSIG
Conditions at: UGKO (KOPITNARI , GE) observed 0200 UTC 15 February 2019
Temperature: 6.0°C (43°F)
Dewpoint: 6.0°C (43°F) [RH = 100%]
Pressure (altimeter): 30.03 inches Hg (1017.0 mb)
Winds: from the SE (130 degrees) at 3 MPH (3 knots; 1.5 m/s)
Visibility: 4 miles ( 6 km)
Ceiling: 4400 feet AGL
Clouds: scattered clouds at 1400 feet AGL
overcast cloud deck at 4400 feet AGL
Weather: no significant weather observed at this time

METAR text: UGKO 150130Z 08002KT 6000 SCT020 OVC045 06/06 Q1017 NOSIG
Conditions at: UGKO (KOPITNARI , GE) observed 0130 UTC 15 February 2019
Temperature: 6.0°C (43°F)
Dewpoint: 6.0°C (43°F) [RH = 100%]
Pressure (altimeter): 30.03 inches Hg (1017.0 mb)
Winds: from the E (80 degrees) at 2 MPH (2 knots; 1.0 m/s)
Visibility: 4 miles ( 6 km)
Ceiling: 4500 feet AGL
Clouds: scattered clouds at 2000 feet AGL
overcast cloud deck at 4500 feet AGL
Weather: no significant weather observed at this time

METAR text: UGKO 150100Z 04003KT 8000 SCT025 OVC048 06/06 Q1017 NOSIG
Conditions at: UGKO (KOPITNARI , GE) observed 0100 UTC 15 February 2019
Temperature: 6.0°C (43°F)
Dewpoint: 6.0°C (43°F) [RH = 100%]
Pressure (altimeter): 30.03 inches Hg (1017.0 mb)
Winds: from the NE (40 degrees) at 3 MPH (3 knots; 1.5 m/s)
Visibility: 5 miles ( 8 km)
Ceiling: 4800 feet AGL
Clouds: scattered clouds at 2500 feet AGL
overcast cloud deck at 4800 feet AGL
Weather: no significant weather observed at this time

METAR text: UGKO 150030Z 02004KT 8000 SCT025 OVC048 07/07 Q1017 NOSIG
Conditions at: UGKO (KOPITNARI , GE) observed 0030 UTC 15 February 2019
Temperature: 7.0°C (45°F)
Dewpoint: 7.0°C (45°F) [RH = 100%]
Pressure (altimeter): 30.03 inches Hg (1017.0 mb)
Winds: from the NNE (20 degrees) at 5 MPH (4 knots; 2.1 m/s)
Visibility: 5 miles ( 8 km)
Ceiling: 4800 feet AGL
Clouds: scattered clouds at 2500 feet AGL
overcast cloud deck at 4800 feet AGL
Weather: no significant weather observed at this time

METAR text: UGKO 150000Z VRB02KT 9999 SCT025 OVC048 07/07 Q1017 NOSIG
Conditions at: UGKO (KOPITNARI , GE) observed 0000 UTC 15 February 2019
Temperature: 7.0°C (45°F)
Dewpoint: 7.0°C (45°F) [RH = 100%]
Pressure (altimeter): 30.03 inches Hg (1017.0 mb)
Winds: variable direction winds at 2 MPH (2 knots; 1.0 m/s)
Visibility: 6 or more miles (10+ km)
Ceiling: 4800 feet AGL
Clouds: scattered clouds at 2500 feet AGL
overcast cloud deck at 4800 feet AGL
Weather: no significant weather observed at this time

METAR text: UGKO 142330Z 27004KT 9999 SCT026 OVC048 07/07 Q1017 NOSIG
Conditions at: UGKO (KOPITNARI , GE) observed 2330 UTC 14 February 2019
Temperature: 7.0°C (45°F)
Dewpoint: 7.0°C (45°F) [RH = 100%]
Pressure (altimeter): 30.03 inches Hg (1017.0 mb)
Winds: from the W (270 degrees) at 5 MPH (4 knots; 2.1 m/s)
Visibility: 6 or more miles (10+ km)
Ceiling: 4800 feet AGL
Clouds: scattered clouds at 2600 feet AGL
overcast cloud deck at 4800 feet AGL
Weather: no significant weather observed at this time

METAR text: UGKO 142300Z 26005KT 9999 SCT021 OVC043 07/07 Q1017 NOSIG
Conditions at: UGKO (KOPITNARI , GE) observed 2300 UTC 14 February 2019
Temperature: 7.0°C (45°F)
Dewpoint: 7.0°C (45°F) [RH = 100%]
Pressure (altimeter): 30.03 inches Hg (1017.0 mb)
Winds: from the W (260 degrees) at 6 MPH (5 knots; 2.6 m/s)
Visibility: 6 or more miles (10+ km)
Ceiling: 4300 feet AGL
Clouds: scattered clouds at 2100 feet AGL
overcast cloud deck at 4300 feet AGL
Weather: no significant weather observed at this time

METAR text: UGKO 142230Z VRB02KT 9999 SCT021 OVC045 07/07 Q1017 NOSIG
Conditions at: UGKO (KOPITNARI , GE) observed 2230 UTC 14 February 2019
Temperature: 7.0°C (45°F)
Dewpoint: 7.0°C (45°F) [RH = 100%]
Pressure (altimeter): 30.03 inches Hg (1017.0 mb)
Winds: variable direction winds at 2 MPH (2 knots; 1.0 m/s)
Visibility: 6 or more miles (10+ km)
Ceiling: 4500 feet AGL
Clouds: scattered clouds at 2100 feet AGL
overcast cloud deck at 4500 feet AGL
Weather: no significant weather observed at this time

METAR text: UGKO 142200Z VRB02KT 9999 SCT020 OVC043 07/07 Q1017 NOSIG
Conditions at: UGKO (KOPITNARI , GE) observed 2200 UTC 14 February 2019
Temperature: 7.0°C (45°F)
Dewpoint: 7.0°C (45°F) [RH = 100%]
Pressure (altimeter): 30.03 inches Hg (1017.0 mb)
Winds: variable direction winds at 2 MPH (2 knots; 1.0 m/s)
Visibility: 6 or more miles (10+ km)
Ceiling: 4300 feet AGL
Clouds: scattered clouds at 2000 feet AGL
overcast cloud deck at 4300 feet AGL
Weather: no significant weather observed at this time

METAR text: UGKO 142130Z 13001KT 9999 SCT021 OVC042 07/07 Q1017 NOSIG
Conditions at: UGKO (KOPITNARI , GE) observed 2130 UTC 14 February 2019
Temperature: 7.0°C (45°F)
Dewpoint: 7.0°C (45°F) [RH = 100%]
Pressure (altimeter): 30.03 inches Hg (1017.0 mb)
Winds: from the SE (130 degrees) at 1 MPH (1 knots; 0.5 m/s)
Visibility: 6 or more miles (10+ km)
Ceiling: 4200 feet AGL
Clouds: scattered clouds at 2100 feet AGL
overcast cloud deck at 4200 feet AGL
Weather: no significant weather observed at this time

METAR text: UGKO 142100Z VRB01KT 9999 SCT021 OVC043 07/07 Q1017 NOSIG
Conditions at: UGKO (KOPITNARI , GE) observed 2100 UTC 14 February 2019
Temperature: 7.0°C (45°F)
Dewpoint: 7.0°C (45°F) [RH = 100%]
Pressure (altimeter): 30.03 inches Hg (1017.0 mb)
Winds: variable direction winds at 1 MPH (1 knots; 0.5 m/s)
Visibility: 6 or more miles (10+ km)
Ceiling: 4300 feet AGL
Clouds: scattered clouds at 2100 feet AGL
overcast cloud deck at 4300 feet AGL
Weather: no significant weather observed at this time

METAR text: UGKO 142030Z 18003KT 9999 SCT022 BKN041 07/07 Q1017 NOSIG
Conditions at: UGKO (KOPITNARI , GE) observed 2030 UTC 14 February 2019
Temperature: 7.0°C (45°F)
Dewpoint: 7.0°C (45°F) [RH = 100%]
Pressure (altimeter): 30.03 inches Hg (1017.0 mb)
Winds: from the S (180 degrees) at 3 MPH (3 knots; 1.5 m/s)
Visibility: 6 or more miles (10+ km)
Ceiling: 4100 feet AGL
Clouds: scattered clouds at 2200 feet AGL
broken clouds at 4100 feet AGL
Weather: no significant weather observed at this time

METAR text: UGKO 142000Z 20002KT 9999 SCT021 BKN042 07/07 Q1017 NOSIG
Conditions at: UGKO (KOPITNARI , GE) observed 2000 UTC 14 February 2019
Temperature: 7.0°C (45°F)
Dewpoint: 7.0°C (45°F) [RH = 100%]
Pressure (altimeter): 30.03 inches Hg (1017.0 mb)
Winds: from the SSW (200 degrees) at 2 MPH (2 knots; 1.0 m/s)
Visibility: 6 or more miles (10+ km)
Ceiling: 4200 feet AGL
Clouds: scattered clouds at 2100 feet AGL
broken clouds at 4200 feet AGL
Weather: no significant weather observed at this time

METAR text: UGKO 141930Z 09003KT 9999 SCT021 BKN043 07/07 Q1017 NOSIG
Conditions at: UGKO (KOPITNARI , GE) observed 1930 UTC 14 February 2019
Temperature: 7.0°C (45°F)
Dewpoint: 7.0°C (45°F) [RH = 100%]
Pressure (altimeter): 30.03 inches Hg (1017.0 mb)
Winds: from the E (90 degrees) at 3 MPH (3 knots; 1.5 m/s)
Visibility: 6 or more miles (10+ km)
Ceiling: 4300 feet AGL
Clouds: scattered clouds at 2100 feet AGL
broken clouds at 4300 feet AGL
Weather: no significant weather observed at this time

METAR text: UGKO 141900Z 12003KT 9999 SCT027 BKN045 07/07 Q1018 NOSIG
Conditions at: UGKO (KOPITNARI , GE) observed 1900 UTC 14 February 2019
Temperature: 7.0°C (45°F)
Dewpoint: 7.0°C (45°F) [RH = 100%]
Pressure (altimeter): 30.06 inches Hg (1018.0 mb)
Winds: from the ESE (120 degrees) at 3 MPH (3 knots; 1.5 m/s)
Visibility: 6 or more miles (10+ km)
Ceiling: 4500 feet AGL
Clouds: scattered clouds at 2700 feet AGL
broken clouds at 4500 feet AGL
Weather: no significant weather observed at this time

METAR text: UGKO 141830Z 00000KT 9999 SCT042 08/06 Q1017 NOSIG
Conditions at: UGKO (KOPITNARI , GE) observed 1830 UTC 14 February 2019
Temperature: 8.0°C (46°F)
Dewpoint: 6.0°C (43°F) [RH = 87%]
Pressure (altimeter): 30.03 inches Hg (1017.0 mb)
Winds: calm
Visibility: 6 or more miles (10+ km)
Ceiling: at least 12,000 feet AGL
Clouds: scattered clouds at 4200 feet AGL
Weather: no significant weather observed at this time

METAR text: UGKO 141800Z 25003KT 9999 SCT042 07/06 Q1018 NOSIG
Conditions at: UGKO (KOPITNARI , GE) observed 1800 UTC 14 February 2019
Temperature: 7.0°C (45°F)
Dewpoint: 6.0°C (43°F) [RH = 93%]
Pressure (altimeter): 30.06 inches Hg (1018.0 mb)
Winds: from the WSW (250 degrees) at 3 MPH (3 knots; 1.5 m/s)
Visibility: 6 or more miles (10+ km)
Ceiling: at least 12,000 feet AGL
Clouds: scattered clouds at 4200 feet AGL
Weather: no significant weather observed at this time

METAR text: UGKO 141730Z 27004KT 9999 SCT042 08/07 Q1018 NOSIG
Conditions at: UGKO (KOPITNARI , GE) observed 1730 UTC 14 February 2019
Temperature: 8.0°C (46°F)
Dewpoint: 7.0°C (45°F) [RH = 93%]
Pressure (altimeter): 30.06 inches Hg (1018.0 mb)
Winds: from the W (270 degrees) at 5 MPH (4 knots; 2.1 m/s)
Visibility: 6 or more miles (10+ km)
Ceiling: at least 12,000 feet AGL
Clouds: scattered clouds at 4200 feet AGL
Weather: no significant weather observed at this time

METAR text: UGKO 141700Z 26005KT 9999 SCT041 07/06 Q1018 NOSIG
Conditions at: UGKO (KOPITNARI , GE) observed 1700 UTC 14 February 2019
Temperature: 7.0°C (45°F)
Dewpoint: 6.0°C (43°F) [RH = 93%]
Pressure (altimeter): 30.06 inches Hg (1018.0 mb)
Winds: from the W (260 degrees) at 6 MPH (5 knots; 2.6 m/s)
Visibility: 6 or more miles (10+ km)
Ceiling: at least 12,000 feet AGL
Clouds: scattered clouds at 4100 feet AGL
Weather: no significant weather observed at this time

Forecast for: UGKO (KOPITNARI , GE)
Text: TAF UGKO 152300Z 1600/1624 26019G29KT 8000 -RA SCT020 OVC040 TX09/1609Z TN06/1603Z
Forecast period: 0000 UTC 16 February 2019 to 0000 UTC 17 February 2019
Forecast type: FROM: standard forecast or significant change
Winds: from the W (260 degrees) at 22 MPH (19 knots; 9.8 m/s)
gusting to 33 MPH (29 knots; 14.9 m/s)
Visibility: 5 miles (8 km)
Ceiling: 4000 feet AGL
Clouds: scattered clouds at 2000 feet AGL
overcast cloud deck at 4000 feet AGL
Weather: -RA  (light rain)
Text: TEMPO 1600/1609 26006KT 3000 RA BR
Forecast period: 0000 to 0900 UTC 16 February 2019
Forecast type: TEMPORARY: The following changes expected for less than half the time period
Winds: from the W (260 degrees) at 7 MPH (6 knots; 3.1 m/s)
Visibility: 1.86 miles (2.99 km)
Ceiling: unknown
Clouds: missing
Weather: RA BR  (moderate rain, mist)